Flight Track Log - Related Links

Times and Time Zones

All times are in EDT time to prevent confusion due to time zone crossing. See the EJA583 flight status page for this flight to view local times or setup timezone preferences in your user account.

Time Position Orientation Groundspeed Altitude Reporting Facility
EDT Latitude Longitude Course Direction KTS MPH feet Rate Location/Type
Wed 10:33:03 AM 43.6339 -110.7239 86° East 192 221 7,600  Level Salt Lake Center
Wed 10:34:04 AM 43.6994 -110.6694 31° Northeast 249 287 10,700 2,927 Climbing Salt Lake Center
Wed 10:35:06 AM 43.7667 -110.6142 31° Northeast 274 315 13,600 2,855 Climbing Salt Lake Center
Wed 10:36:00 AM 43.6822 -109.8806 83° East  Level Estimated
Wed 10:36:08 AM 43.7928 -110.5139 70° East 281 323 16,600  Level Salt Lake Center
Wed 10:37:00 AM 43.6940 -109.7375 81° East  Level Estimated
Wed 10:37:10 AM 43.7997 -110.4042 85° East 285 328 19,000  Level Salt Lake Center
Wed 10:38:00 AM 43.7057 -109.5944 86° East  Level Estimated
Wed 10:38:11 AM 43.8078 -110.2861 85° East 293 337 21,700  Level Salt Lake Center
Wed 10:39:13 AM 43.8147 -110.1747 85° East 304 350 24,100 2,274 Climbing Salt Lake Center
Wed 10:40:15 AM 43.8231 -110.0433 85° East 307 353 26,400 1,839 Climbing Salt Lake Center
Wed 10:41:17 AM 43.8303 -109.9192 85° East 331 381 27,900 1,548 Climbing Salt Lake Center
Wed 10:42:19 AM 43.8392 -109.7653 85° East 357 411 29,600 1,452 Climbing Salt Lake Center
Wed 10:43:21 AM 43.8478 -109.6281 85° East 371 427 30,900 1,415 Climbing Salt Lake Center
Wed 10:44:22 AM 43.8581 -109.4625 85° East 385 443 32,500 1,561 Climbing Salt Lake Center
Wed 10:45:24 AM 43.8644 -109.3186 86° East 378 435 34,100 1,210 Climbing Salt Lake Center
Wed 10:46:26 AM 43.8733 -109.1714 85° East 384 442 35,000 435 Climbing Salt Lake Center
Wed 10:47:28 AM 43.8822 -109.0092 86° East 416 479 35,000  Level Salt Lake Center
Wed 10:48:30 AM 43.8914 -108.8414 86° East 435 501 35,000  Level Salt Lake Center
Wed 10:49:32 AM 43.8997 -108.6736 86° East 440 506 35,000  Level Salt Lake Center
Wed 10:50:34 AM 43.9092 -108.4714 86° East 440 506 35,000  Level Salt Lake Center
Wed 10:51:36 AM 43.9167 -108.3058 86° East 435 501 35,000  Level Salt Lake Center
Wed 10:52:38 AM 43.9253 -108.1397 86° East 435 501 35,000  Level Salt Lake Center
Wed 10:53:39 AM 43.9328 -107.9708 86° East 439 505 35,000  Level Salt Lake Center
Wed 10:54:41 AM 43.9394 -107.8031 87° East 439 505 35,000  Level Salt Lake Center
Wed 10:55:43 AM 43.9483 -107.6011 86° East 441 507 35,000  Level Salt Lake Center
Wed 10:56:45 AM 43.9542 -107.4331 87° East 439 505 35,000  Level Salt Lake Center
Wed 10:57:47 AM 43.9600 -107.2650 87° East 441 507 35,000  Level Salt Lake Center
Wed 10:58:49 AM 43.9678 -107.0967 86° East 441 507 35,000  Level Salt Lake Center
Wed 10:59:51 AM 43.9736 -106.9278 87° East 442 509 35,000  Level Salt Lake Center
Wed 11:00:45 AM 43.9806 -106.7703 86° East 443 510 35,000  Level Denver Center
Wed 11:01:47 AM 43.9869 -106.5806 87° East 443 510 35,000  Level Denver Center
Wed 11:02:49 AM 43.9914 -106.4178 88° East 442 509 35,000 -387 Level Denver Center
Wed 11:03:51 AM 43.9983 -106.2278 87° East 440 506 34,200 -919 Descending Denver Center
Wed 11:04:53 AM 44.0036 -106.0636 87° East 443 510 33,100 -677 Descending Denver Center
Wed 11:05:55 AM 44.0089 -105.8794 88° East 433 498 32,800 -657 Descending Denver Center
Wed 11:07:10 AM 44.0119 -105.6661 89° East 433 498 31,600 -964 Descending Denver Center
Wed 11:08:12 AM 44.0156 -105.4975 88° East 448 516 30,600 -968 Descending Denver Center
Wed 11:09:14 AM 44.0203 -105.3289 88° East 453 521 29,600 -1,016 Descending Denver Center
Wed 11:10:16 AM 44.0250 -105.1347 88° East 452 520 28,500 -1,016 Descending Denver Center
Wed 11:11:18 AM 44.0275 -104.9714 89° East 446 513 27,500 -726 Descending Denver Center
Wed 11:12:20 AM 44.0297 -104.7811 89° East 443 510 27,000 -919 Descending Denver Center
Wed 11:13:22 AM 44.0328 -104.6181 88° East 442 509 25,600 -1,500 Descending Denver Center
Wed 11:14:24 AM 44.0367 -104.4367 88° East 427 491 23,900 -1,617 Descending Denver Center
Wed 11:15:17 AM 44.0333 -104.2900 92° East 432 497 22,500 -1,452 Descending Denver Center
Wed 11:15:26 AM 44.0378 -104.2769 65° Northeast 428 493 22,400 -1,574 Descending Denver Center
Wed 11:16:18 AM 44.0361 -104.1247 91° East 411 473 20,900 -1,742 Descending Denver Center
Wed 11:16:28 AM 44.0406 -104.1036 74° East 411 473 20,600 -2,361 Descending Denver Center
Wed 11:17:19 AM 44.0378 -103.9831 92° East 376 433 18,500 -2,323 Descending Denver Center
Wed 11:17:30 AM 44.0400 -103.9603 82° East 396 456 18,200 -2,300 Descending Denver Center
Wed 11:18:19 AM 44.0397 -103.8444 90° East 334 384 16,200 -2,419 Descending Denver Center
Wed 11:18:32 AM 44.0392 -103.8044 91° East 380 437 15,700 -2,361 Descending Denver Center
Wed 11:19:20 AM 44.0419 -103.7231 87° East 317 365 13,800 -2,323 Descending Denver Center
Wed 11:19:34 AM 44.0428 -103.6972 87° East 332 382 13,300 -2,600 Descending Denver Center
Wed 11:20:20 AM 44.0289 -103.6031 102° East 304 350 11,200 -2,323 Descending Denver Center
Wed 11:20:36 AM 44.0264 -103.5797 98° East 331 381 10,900 -1,180 Descending Denver Center
Wed 11:21:21 AM 44.0136 -103.4953 102° East 291 335 10,000 -857 Descending Denver Center
Wed 11:21:39 AM 44.0092 -103.4586 100° East 311 358 10,000  Level Denver Center
Wed 11:22:22 AM 44.0006 -103.3900 100° East 266 306 10,000  Level Denver Center
Wed 11:22:41 AM 43.9972 -103.3597 99° East 295 339 10,000 -200 Level Denver Center
Wed 11:23:22 AM 43.9881 -103.2875 100° East 256 295 9,800 -581 Descending Denver Center
Wed 11:23:43 AM 43.9817 -103.2519 104° East 275 316 9,400 -1,672 Descending Denver Center
Wed 11:24:23 AM 43.9719 -103.1919 103° East 264 304 8,100 -1,839 Descending Denver Center
Wed 11:24:45 AM 43.9681 -103.1603 100° East 264 304 7,500 -2,300 Descending Denver Center
Wed 11:25:23 AM 43.9575 -103.0931 102° East 255 293 5,800 -1,065 Descending Denver Center
Wed 11:25:47 AM 43.9556 -103.0692 96° East 257 296 6,400 -1,279 Climbing Denver Center
Wed 11:26:24 AM 43.9775 -103.0136 61° Northeast 195 224 4,500 -1,714 Descending Denver Center
Wed 11:27:25 AM 44.0128 -103.0361 335° Northwest 125 144 3,600 -885 Descending Denver Center
Wed 11:29:00 AM 44.0333 -103.0500 90° East  Level FlightAware Approximate

Login

Don't have an account? Register now (free) for customized features, flight alerts, and more!